Time;durP1;ratioP1;P1;durP2;ratioP2;P2;SDS_P1;SDS_P2;PMS_P1;PMS_P2;Temp;Humidity;BMP_temperature;BMP_pressure;BME280_temperature;BME280_humidity;BME280_pressure;Samples;Min_cycle;Max_cycle;Signal;HPM_P1;HPM_P2
2022/09/13 00:00:33;;;;;;;6.80;3.10;;;12.30;99.90;;;;;;5028930;28;20434;-57
2022/09/13 00:02:59;;;;;;;10.50;3.10;;;12.30;99.90;;;;;;5026155;28;20179;-57
2022/09/13 00:05:25;;;;;;;6.03;2.80;;;12.30;99.90;;;;;;5029414;28;20426;-58
2022/09/13 00:07:50;;;;;;;4.13;3.13;;;12.30;99.90;;;;;;5026606;28;20651;-58
2022/09/13 00:10:16;;;;;;;3.43;2.93;;;12.30;99.90;;;;;;5030098;28;20434;-56
2022/09/13 00:12:42;;;;;;;5.23;3.20;;;12.20;99.90;;;;;;5029170;28;20186;-56
2022/09/13 00:15:08;;;;;;;3.27;2.97;;;12.20;99.90;;;;;;5030346;28;20257;-57
2022/09/13 00:17:34;;;;;;;5.50;2.90;;;12.20;99.90;;;;;;5025550;28;20261;-55
2022/09/13 00:19:59;;;;;;;5.10;2.60;;;12.20;99.90;;;;;;5026814;28;20476;-58
2022/09/13 00:22:26;;;;;;;3.90;3.27;;;12.10;99.90;;;;;;5026950;28;20185;-58
2022/09/13 00:24:52;;;;;;;2.77;2.57;;;12.10;99.90;;;;;;5027969;28;20182;-56
2022/09/13 00:27:18;;;;;;;3.30;3.00;;;12.10;99.90;;;;;;5028119;28;20430;-57
2022/09/13 00:29:43;;;;;;;13.67;3.10;;;12.10;99.90;;;;;;5024956;28;20239;-56
2022/09/13 00:32:09;;;;;;;8.33;3.40;;;12.10;99.90;;;;;;5028898;28;20176;-57
2022/09/13 00:34:34;;;;;;;5.37;2.90;;;12.00;99.90;;;;;;5029792;28;20250;-57
2022/09/13 00:37:01;;;;;;;3.80;2.73;;;12.00;99.90;;;;;;5027095;28;20181;-56
2022/09/13 00:39:26;;;;;;;4.90;3.53;;;12.00;99.90;;;;;;5028695;28;20192;-56
2022/09/13 00:41:53;;;;;;;3.67;3.27;;;12.00;99.90;;;;;;5028692;28;20438;-53
2022/09/13 00:44:57;;;;;;;5.23;3.00;;;12.00;99.90;;;;;;5027861;28;20176;-57
2022/09/13 00:47:32;;;;;;;3.80;2.90;;;12.00;99.90;;;;;;5024106;28;20580;-57
2022/09/13 00:50:06;;;;;;;3.93;3.00;;;11.90;99.90;;;;;;5028888;28;20450;-57
2022/09/13 00:52:34;;;;;;;3.47;3.17;;;11.90;99.90;;;;;;5027259;28;20437;-57
2022/09/13 00:55:10;;;;;;;5.27;3.17;;;11.90;99.90;;;;;;5027901;28;20466;-57
2022/09/13 00:57:36;;;;;;;2.97;2.77;;;11.90;99.90;;;;;;5025895;28;20430;-56
2022/09/13 01:00:12;;;;;;;4.10;3.10;;;11.90;99.90;;;;;;5030783;28;20521;-57
2022/09/13 01:02:46;;;;;;;4.00;2.87;;;11.80;99.90;;;;;;5025949;28;20516;-57
2022/09/13 01:05:16;;;;;;;3.20;2.90;;;11.80;99.90;;;;;;5026934;28;20466;-57
2022/09/13 01:07:42;;;;;;;3.30;3.03;;;11.80;99.90;;;;;;5025835;28;20423;-56
2022/09/13 01:10:08;;;;;;;6.20;3.53;;;11.80;99.90;;;;;;5027847;28;20446;-56
2022/09/13 01:13:13;;;;;;;4.50;3.40;;;11.80;99.90;;;;;;5024038;28;20518;-55
2022/09/13 01:15:40;;;;;;;5.40;3.47;;;11.80;99.90;;;;;;5005930;28;20809;-57
2022/09/13 01:18:07;;;;;;;6.10;3.20;;;11.80;99.90;;;;;;5022147;28;20480;-56
2022/09/13 01:20:56;;;;;;;3.70;3.20;;;11.80;99.90;;;;;;5026669;28;20879;-56
2022/09/13 01:23:57;;;;;;;4.83;3.13;;;11.80;99.90;;;;;;5022797;28;20474;-58
2022/09/13 01:26:40;;;;;;;5.97;3.50;;;11.70;99.90;;;;;;5027104;28;20444;-56
2022/09/13 01:29:40;;;;;;;3.70;2.90;;;11.70;99.90;;;;;;5026774;28;20422;-56
2022/09/13 01:32:32;;;;;;;4.50;3.37;;;11.70;99.90;;;;;;5023559;28;20459;-56
2022/09/13 01:35:36;;;;;;;7.80;2.90;;;11.60;99.90;;;;;;5026466;28;20457;-56
2022/09/13 01:38:13;;;;;;;5.00;3.43;;;11.60;99.90;;;;;;5025523;28;20783;-55
2022/09/13 01:41:22;;;;;;;7.50;3.60;;;11.60;99.90;;;;;;5028953;28;20770;-55
2022/09/13 01:44:07;;;;;;;9.20;3.93;;;11.60;99.90;;;;;;5022156;28;20427;-55
2022/09/13 01:46:45;;;;;;;4.33;3.37;;;11.60;99.90;;;;;;5020710;28;20945;-56
2022/09/13 01:49:26;;;;;;;3.10;2.80;;;11.60;99.90;;;;;;5028941;28;20453;-57
2022/09/13 01:52:10;;;;;;;5.17;3.53;;;11.50;99.90;;;;;;5021142;28;20502;-56
2022/09/13 01:54:41;;;;;;;5.87;3.03;;;11.50;99.90;;;;;;5021312;28;20454;-56
2022/09/13 01:57:24;;;;;;;4.70;3.10;;;11.50;99.90;;;;;;5029591;28;21070;-56
2022/09/13 01:59:56;;;;;;;6.50;3.17;;;11.50;99.90;;;;;;5020082;28;20441;-55
2022/09/13 02:02:53;;;;;;;3.50;3.17;;;11.50;99.90;;;;;;5025525;28;20438;-55
2022/09/13 02:05:37;;;;;;;6.30;3.57;;;11.40;99.90;;;;;;5022750;28;20426;-56
2022/09/13 02:08:08;;;;;;;3.90;3.07;;;11.40;99.90;;;;;;5022192;28;20522;-56
2022/09/13 02:11:01;;;;;;;7.20;3.43;;;11.40;99.90;;;;;;5027239;28;20427;-57
2022/09/13 02:13:34;;;;;;;3.13;2.83;;;11.40;99.90;;;;;;5021021;28;20537;-56
2022/09/13 02:16:06;;;;;;;3.13;2.93;;;11.30;99.90;;;;;;5020151;28;20565;-55
2022/09/13 02:18:37;;;;;;;4.40;3.40;;;11.30;99.90;;;;;;5021076;28;20919;-56
2022/09/13 02:21:11;;;;;;;3.20;2.90;;;11.30;99.90;;;;;;5025855;28;20552;-56
2022/09/13 02:23:50;;;;;;;3.40;3.00;;;11.30;99.90;;;;;;5027529;28;20465;-56
2022/09/13 02:26:18;;;;;;;5.60;3.27;;;11.30;99.90;;;;;;5023091;28;20427;-57
2022/09/13 02:28:50;;;;;;;6.10;3.07;;;11.30;99.90;;;;;;5028465;28;20470;-56
2022/09/13 02:31:22;;;;;;;4.53;3.43;;;11.30;99.90;;;;;;5020956;28;20434;-57
2022/09/13 02:33:55;;;;;;;13.43;3.20;;;11.20;99.90;;;;;;5026041;28;20442;-57
2022/09/13 02:36:25;;;;;;;4.43;3.40;;;11.20;99.90;;;;;;5025195;28;20499;-56
2022/09/13 02:39:02;;;;;;;4.70;3.23;;;11.20;99.90;;;;;;5018489;28;20477;-57
2022/09/13 02:42:02;;;;;;;4.23;3.30;;;11.20;99.90;;;;;;5027639;28;20963;-57
2022/09/13 02:44:37;;;;;;;10.70;3.67;;;11.20;99.90;;;;;;5024334;28;20811;-57
2022/09/13 02:47:06;;;;;;;4.07;3.57;;;11.20;99.90;;;;;;5022986;28;20565;-56
2022/09/13 02:49:52;;;;;;;5.57;3.23;;;11.20;99.90;;;;;;5023939;28;20461;-57
2022/09/13 02:52:24;;;;;;;4.13;2.83;;;11.20;99.90;;;;;;5022100;28;20438;-57
2022/09/13 02:55:01;;;;;;;3.40;3.10;;;11.10;99.90;;;;;;5024332;28;20550;-58
2022/09/13 02:57:31;;;;;;;3.93;3.00;;;11.10;99.90;;;;;;5022401;28;20430;-57
2022/09/13 02:59:57;;;;;;;8.10;3.43;;;11.10;99.90;;;;;;5026187;28;20457;-57
2022/09/13 03:02:26;;;;;;;6.77;3.43;;;11.10;99.90;;;;;;5025911;28;20825;-58
2022/09/13 03:04:52;;;;;;;5.80;4.07;;;11.10;99.90;;;;;;5022538;28;22352;-57
2022/09/13 03:07:18;;;;;;;3.77;3.43;;;11.10;99.90;;;;;;5019117;28;20870;-57
2022/09/13 03:09:54;;;;;;;4.13;3.50;;;11.10;99.90;;;;;;5026106;28;20349;-57
2022/09/13 03:12:40;;;;;;;4.17;3.17;;;11.10;99.90;;;;;;5025159;28;20190;-58
2022/09/13 03:15:08;;;;;;;3.17;2.90;;;11.00;99.90;;;;;;5019291;28;20881;-57
2022/09/13 03:17:58;;;;;;;3.67;3.37;;;11.00;99.90;;;;;;5023389;28;20427;-56
2022/09/13 03:20:30;;;;;;;5.83;3.10;;;11.00;99.90;;;;;;5026990;28;20800;-57
2022/09/13 03:23:05;;;;;;;4.50;3.23;;;11.00;99.90;;;;;;5021472;28;20728;-57
2022/09/13 03:25:41;;;;;;;3.73;3.10;;;10.90;99.90;;;;;;5024511;28;20488;-57
2022/09/13 03:28:31;;;;;;;3.40;3.10;;;10.90;99.90;;;;;;5024628;28;20708;-58
2022/09/13 03:31:23;;;;;;;5.37;3.40;;;10.90;99.90;;;;;;5027220;28;20906;-56
2022/09/13 03:33:58;;;;;;;4.60;3.53;;;10.90;99.90;;;;;;5024292;28;20942;-58
2022/09/13 03:36:32;;;;;;;5.40;3.57;;;10.90;99.90;;;;;;5025482;28;20548;-57
2022/09/13 03:39:12;;;;;;;4.20;3.37;;;10.90;99.90;;;;;;5026432;28;20458;-59
2022/09/13 03:41:44;;;;;;;5.87;3.20;;;10.80;99.90;;;;;;5019145;28;20966;-57
2022/09/13 03:44:13;;;;;;;3.63;3.33;;;10.80;99.90;;;;;;5027838;28;20933;-57
2022/09/13 03:46:46;;;;;;;5.10;4.27;;;10.80;99.90;;;;;;5019080;28;20558;-56
2022/09/13 03:49:16;;;;;;;9.53;3.90;;;10.80;99.90;;;;;;5028433;28;20485;-57
2022/09/13 03:51:45;;;;;;;6.60;3.40;;;10.70;99.90;;;;;;5020761;28;20430;-58
2022/09/13 03:54:19;;;;;;;4.80;3.80;;;10.70;99.90;;;;;;5023008;28;20812;-55
2022/09/13 03:57:19;;;;;;;5.93;4.10;;;10.70;99.90;;;;;;5023698;28;20447;-56
2022/09/13 03:59:51;;;;;;;5.30;3.17;;;10.70;99.90;;;;;;5020378;28;20520;-59
2022/09/13 04:02:18;;;;;;;5.13;4.63;;;10.70;99.90;;;;;;5013653;28;20972;-57
2022/09/13 04:04:44;;;;;;;3.77;3.30;;;10.60;99.90;;;;;;5018863;28;20438;-57
2022/09/13 04:07:13;;;;;;;5.70;3.57;;;10.60;99.90;;;;;;5019819;28;22535;-58
2022/09/13 04:09:38;;;;;;;5.43;3.50;;;10.60;99.90;;;;;;5022515;28;20466;-58
2022/09/13 04:12:05;;;;;;;5.30;3.93;;;10.60;99.90;;;;;;5016513;28;20915;-58
2022/09/13 04:14:30;;;;;;;4.50;4.00;;;10.50;99.90;;;;;;5016800;28;20279;-58
2022/09/13 04:16:57;;;;;;;8.50;4.10;;;10.50;99.90;;;;;;5021557;28;21036;-58
2022/09/13 04:19:24;;;;;;;7.20;4.60;;;10.50;99.90;;;;;;5019047;28;20199;-58
2022/09/13 04:21:50;;;;;;;10.23;4.73;;;10.50;99.90;;;;;;5033685;22;20422;-61
2022/09/13 04:24:17;;;;;;;11.27;5.33;;;10.50;99.90;;;;;;5022784;28;20431;-61
2022/09/13 04:26:50;;;;;;;7.83;5.90;;;10.50;99.90;;;;;;5002798;28;20443;-61
2022/09/13 04:29:17;;;;;;;12.93;5.87;;;10.50;99.90;;;;;;5002524;28;20507;-61
2022/09/13 04:31:43;;;;;;;9.03;6.87;;;10.50;99.90;;;;;;5002755;28;21016;-60
2022/09/13 04:34:09;;;;;;;7.73;6.43;;;10.40;99.90;;;;;;5008622;28;22397;-61
2022/09/13 04:36:35;;;;;;;8.47;6.20;;;10.40;99.90;;;;;;4994496;28;20495;-61
2022/09/13 04:39:01;;;;;;;7.93;7.10;;;10.40;99.90;;;;;;5005100;28;20547;-61
2022/09/13 04:41:27;;;;;;;8.10;6.87;;;10.40;99.90;;;;;;5001946;28;20438;-61
2022/09/13 04:43:53;;;;;;;7.17;6.50;;;10.40;99.90;;;;;;5001344;28;20536;-61
2022/09/13 04:46:19;;;;;;;8.53;6.60;;;10.40;99.90;;;;;;5000479;28;20431;-61
2022/09/13 04:48:51;;;;;;;8.97;6.93;;;10.30;99.90;;;;;;5010379;28;20177;-61
2022/09/13 04:51:17;;;;;;;10.73;7.23;;;10.30;99.90;;;;;;4998564;28;20181;-61
2022/09/13 04:53:53;;;;;;;10.40;7.10;;;10.30;99.90;;;;;;5013184;28;20435;-62
2022/09/13 04:56:19;;;;;;;12.57;6.43;;;10.30;99.90;;;;;;5008188;28;20467;-62
2022/09/13 04:58:45;;;;;;;8.00;6.27;;;10.20;99.90;;;;;;5004603;28;20761;-62
2022/09/13 05:01:10;;;;;;;7.93;7.07;;;10.20;99.90;;;;;;4994533;28;20423;-61
2022/09/13 05:03:37;;;;;;;8.27;7.23;;;10.10;99.90;;;;;;5009152;28;20459;-63
2022/09/13 05:06:29;;;;;;;20.57;8.60;;;10.10;99.90;;;;;;5008392;28;20275;-62
2022/09/13 05:08:56;;;;;;;10.03;8.87;;;10.10;99.90;;;;;;5000578;28;20864;-62
2022/09/13 05:11:22;;;;;;;9.67;8.17;;;10.10;99.90;;;;;;5008327;28;20443;-62
2022/09/13 05:13:51;;;;;;;10.40;7.60;;;10.10;99.90;;;;;;5004780;28;20458;-61
2022/09/13 05:16:17;;;;;;;9.00;7.80;;;10.10;99.90;;;;;;5012690;28;20510;-62
2022/09/13 05:18:43;;;;;;;8.53;7.60;;;10.10;99.90;;;;;;5011233;28;20470;-62
2022/09/13 05:21:09;;;;;;;7.80;7.10;;;10.20;99.90;;;;;;4996946;28;20439;-62
2022/09/13 05:23:34;;;;;;;9.27;7.30;;;10.20;99.90;;;;;;5008403;28;20767;-62
2022/09/13 05:26:02;;;;;;;9.20;8.30;;;10.20;99.90;;;;;;5010069;28;20181;-62
2022/09/13 05:28:30;;;;;;;8.57;7.70;;;10.20;99.90;;;;;;5005891;28;20240;-62
2022/09/13 05:31:03;;;;;;;10.13;8.10;;;10.30;99.90;;;;;;5009663;28;20454;-62
2022/09/13 05:33:33;;;;;;;9.73;7.50;;;10.30;99.90;;;;;;5004835;28;21009;-62
2022/09/13 05:35:59;;;;;;;8.70;7.83;;;10.30;99.90;;;;;;5017636;28;20616;-62
2022/09/13 05:38:24;;;;;;;11.33;7.10;;;10.30;99.90;;;;;;5001226;28;20518;-62
2022/09/13 05:40:58;;;;;;;13.27;7.87;;;10.30;99.90;;;;;;5009686;28;20435;-62
2022/09/13 05:43:26;;;;;;;10.43;8.10;;;10.30;99.90;;;;;;5008759;28;20346;-62
2022/09/13 05:46:00;;;;;;;9.03;8.10;;;10.40;99.90;;;;;;5025211;28;20471;-62
2022/09/13 05:48:26;;;;;;;10.03;8.60;;;10.40;99.90;;;;;;5003303;28;20439;-62
2022/09/13 05:50:51;;;;;;;10.23;8.10;;;10.40;99.90;;;;;;5007121;28;20448;-58
2022/09/13 05:53:17;;;;;;;9.87;8.57;;;10.40;99.90;;;;;;5003780;28;20223;-58
2022/09/13 05:55:42;;;;;;;8.93;7.97;;;10.50;99.90;;;;;;4996796;28;20211;-61
2022/09/13 05:58:08;;;;;;;9.70;8.33;;;10.50;99.90;;;;;;5003580;28;20185;-61
2022/09/13 06:00:34;;;;;;;12.80;7.83;;;10.50;99.90;;;;;;5006027;28;20551;-61
2022/09/13 06:02:59;;;;;;;12.73;7.90;;;10.60;99.90;;;;;;5006311;28;20207;-62
2022/09/13 06:05:25;;;;;;;8.03;6.47;;;10.70;99.90;;;;;;5008883;28;20271;-61
2022/09/13 06:07:50;;;;;;;7.77;6.97;;;10.70;99.90;;;;;;5002096;28;20277;-61
2022/09/13 06:10:16;;;;;;;6.87;6.17;;;10.80;99.90;;;;;;5005714;28;20264;-61
2022/09/13 06:12:42;;;;;;;9.50;6.77;;;10.90;99.90;;;;;;5011521;28;20251;-61
2022/09/13 06:15:08;;;;;;;13.67;7.27;;;10.90;99.90;;;;;;5005391;28;20209;-61
2022/09/13 06:17:34;;;;;;;13.43;6.60;;;11.00;99.90;;;;;;4995226;28;20803;-61
2022/09/13 06:19:59;;;;;;;6.80;6.00;;;11.00;99.90;;;;;;5004693;28;20436;-61
2022/09/13 06:22:31;;;;;;;7.17;5.60;;;11.10;99.90;;;;;;5008214;28;20212;-61
2022/09/13 06:25:00;;;;;;;6.60;6.00;;;11.20;99.90;;;;;;5002823;28;20532;-61
2022/09/13 06:27:25;;;;;;;6.27;5.40;;;11.30;99.90;;;;;;5008201;28;20501;-61
2022/09/13 06:29:51;;;;;;;6.50;5.03;;;11.40;99.90;;;;;;5001832;28;20982;-61
2022/09/13 06:32:17;;;;;;;5.90;5.10;;;11.40;99.90;;;;;;5005403;28;20196;-61
2022/09/13 06:34:42;;;;;;;6.10;5.20;;;11.50;99.90;;;;;;5009109;28;20188;-61
2022/09/13 06:37:08;;;;;;;5.87;4.80;;;11.50;99.90;;;;;;5007705;28;20176;-61
2022/09/13 06:39:33;;;;;;;7.47;5.07;;;11.60;99.90;;;;;;5007518;28;20635;-61
2022/09/13 06:41:59;;;;;;;4.63;4.27;;;11.70;99.90;;;;;;5003728;28;20209;-61
2022/09/13 06:44:25;;;;;;;5.80;4.90;;;11.80;99.90;;;;;;5008212;28;20203;-61
2022/09/13 06:46:51;;;;;;;4.73;4.30;;;11.80;99.90;;;;;;5009282;28;20415;-61
2022/09/13 06:49:16;;;;;;;8.13;4.90;;;11.90;99.90;;;;;;5009904;28;20192;-61
2022/09/13 06:51:42;;;;;;;4.63;4.20;;;11.90;99.90;;;;;;5007661;28;20172;-61
2022/09/13 06:54:08;;;;;;;4.37;3.97;;;12.00;99.90;;;;;;5004980;28;20632;-61
2022/09/13 06:56:36;;;;;;;6.10;4.50;;;12.10;99.90;;;;;;5004966;28;20215;-61
2022/09/13 06:59:04;;;;;;;7.40;4.73;;;12.10;99.90;;;;;;5008837;28;20446;-61
2022/09/13 07:01:45;;;;;;;4.83;4.00;;;12.20;99.90;;;;;;5006659;28;20462;-61
2022/09/13 07:04:13;;;;;;;5.17;4.53;;;12.30;99.90;;;;;;5003155;28;20443;-61
2022/09/13 07:06:45;;;;;;;5.57;4.03;;;12.30;99.90;;;;;;5004748;28;20438;-61
2022/09/13 07:09:16;;;;;;;6.10;3.93;;;12.40;99.90;;;;;;5009998;28;20503;-60
2022/09/13 07:11:43;;;;;;;9.63;4.10;;;12.50;99.90;;;;;;5007316;28;20440;-61
2022/09/13 07:14:16;;;;;;;5.27;3.80;;;12.60;99.90;;;;;;5008905;28;20510;-61
2022/09/13 07:16:42;;;;;;;4.87;4.37;;;12.70;99.90;;;;;;5005762;28;20617;-61
2022/09/13 07:19:13;;;;;;;4.93;4.47;;;12.80;99.90;;;;;;5006067;28;20516;-61
2022/09/13 07:21:39;;;;;;;7.27;5.13;;;12.90;99.90;;;;;;4999690;28;20191;-61
2022/09/13 07:24:04;;;;;;;6.63;5.03;;;13.00;99.90;;;;;;4999776;28;20941;-61
2022/09/13 07:26:30;;;;;;;5.50;4.70;;;13.10;99.90;;;;;;5001232;28;20184;-61
2022/09/13 07:28:59;;;;;;;9.83;7.07;;;13.20;99.90;;;;;;4998798;28;20635;-61
2022/09/13 07:31:28;;;;;;;6.27;5.67;;;13.30;99.90;;;;;;5004134;28;20675;-61
2022/09/13 07:33:56;;;;;;;6.37;5.20;;;13.40;99.90;;;;;;5003218;28;20464;-60
2022/09/13 07:36:22;;;;;;;8.40;5.43;;;13.50;99.90;;;;;;4998795;28;20606;-62
2022/09/13 07:38:48;;;;;;;5.60;5.07;;;13.70;99.90;;;;;;5002518;28;20431;-62
2022/09/13 07:41:16;;;;;;;6.20;5.10;;;13.80;99.90;;;;;;4999811;28;20496;-61
2022/09/13 07:43:42;;;;;;;8.00;4.00;;;13.80;99.90;;;;;;5005596;28;20450;-62
2022/09/13 07:46:11;;;;;;;8.30;4.43;;;13.90;99.90;;;;;;5006447;28;20436;-62
2022/09/13 07:48:39;;;;;;;7.40;4.50;;;14.00;99.90;;;;;;5004051;28;21024;-62
2022/09/13 07:51:13;;;;;;;7.30;4.37;;;14.10;99.90;;;;;;5000244;28;20975;-62
2022/09/13 07:53:40;;;;;;;9.63;4.70;;;14.20;99.90;;;;;;5007005;28;20463;-62
2022/09/13 07:56:10;;;;;;;5.93;5.20;;;14.20;99.90;;;;;;5002837;28;20464;-61
2022/09/13 07:58:37;;;;;;;7.13;5.80;;;14.40;99.90;;;;;;5001656;28;20781;-62
2022/09/13 08:01:05;;;;;;;9.47;6.13;;;14.50;99.90;;;;;;4996930;28;20463;-63
2022/09/13 08:03:32;;;;;;;12.23;5.47;;;14.60;99.90;;;;;;5003703;28;20580;-62
2022/09/13 08:05:58;;;;;;;8.77;5.10;;;14.70;99.90;;;;;;5006711;28;20435;-62
2022/09/13 08:08:23;;;;;;;5.50;4.97;;;14.90;99.90;;;;;;5004891;28;20463;-62
2022/09/13 08:10:49;;;;;;;6.40;4.93;;;15.00;99.90;;;;;;4997667;28;20576;-62
2022/09/13 08:13:15;;;;;;;5.90;5.30;;;15.20;99.90;;;;;;5004561;28;20209;-62
2022/09/13 08:15:42;;;;;;;7.03;5.10;;;15.30;99.90;;;;;;4999040;28;20584;-62
2022/09/13 08:18:08;;;;;;;8.33;5.47;;;15.50;99.90;;;;;;5005925;28;20442;-61
2022/09/13 08:20:38;;;;;;;10.87;5.70;;;15.60;99.90;;;;;;5007196;28;20550;-62
2022/09/13 08:23:06;;;;;;;5.60;4.80;;;15.70;99.90;;;;;;5004911;28;21073;-62
2022/09/13 08:25:37;;;;;;;8.73;4.70;;;15.80;99.90;;;;;;5005548;28;20452;-62
2022/09/13 08:28:13;;;;;;;8.57;5.40;;;15.90;99.90;;;;;;5009830;28;20443;-62
2022/09/13 08:30:40;;;;;;;8.90;4.70;;;16.00;99.90;;;;;;5006804;28;20443;-62
2022/09/13 08:33:06;;;;;;;5.47;4.13;;;16.20;99.90;;;;;;5007916;28;20517;-62
2022/09/13 08:35:33;;;;;;;6.50;4.77;;;16.40;99.90;;;;;;5005920;28;20458;-62
2022/09/13 08:37:59;;;;;;;7.83;5.00;;;16.50;99.90;;;;;;5001889;28;20173;-62
2022/09/13 08:40:29;;;;;;;4.93;4.47;;;16.70;99.90;;;;;;5003342;28;20482;-62
2022/09/13 08:42:58;;;;;;;8.30;4.53;;;16.80;99.90;;;;;;5008988;28;20449;-62
2022/09/13 08:45:24;;;;;;;4.80;4.23;;;17.00;99.90;;;;;;5001936;28;20443;-62
2022/09/13 08:47:53;;;;;;;6.20;4.03;;;17.10;99.90;;;;;;5005542;28;20439;-62
2022/09/13 08:50:32;;;;;;;8.27;5.13;;;17.30;99.90;;;;;;5009101;28;20431;-62
2022/09/13 08:53:19;;;;;;;6.43;4.30;;;17.40;99.90;;;;;;5008357;28;20450;-62
2022/09/13 08:56:10;;;;;;;4.70;3.67;;;17.60;99.90;;;;;;5002983;28;20470;-62
2022/09/13 08:58:51;;;;;;;8.13;4.03;;;17.70;99.90;;;;;;5005023;28;20489;-62
2022/09/13 09:01:30;;;;;;;5.70;3.93;;;17.90;99.90;;;;;;5006710;28;20485;-59
2022/09/13 09:04:31;;;;;;;7.80;4.10;;;18.00;99.90;;;;;;5002929;28;20475;-63
2022/09/13 09:07:20;;;;;;;7.77;3.47;;;18.30;99.90;;;;;;5003376;28;20526;-59
2022/09/13 09:10:00;;;;;;;8.47;4.37;;;18.50;99.90;;;;;;5002303;28;21083;-62
2022/09/13 09:12:35;;;;;;;8.70;4.60;;;18.70;99.90;;;;;;5008358;28;20477;-59
2022/09/13 09:15:21;;;;;;;6.10;3.80;;;18.80;99.90;;;;;;5003976;28;20511;-60
2022/09/13 09:18:01;;;;;;;6.47;3.63;;;19.00;99.90;;;;;;5005251;28;20501;-62
2022/09/13 09:20:31;;;;;;;7.10;3.47;;;19.20;99.90;;;;;;5003291;28;20439;-59
2022/09/13 09:23:06;;;;;;;6.60;3.40;;;19.40;99.90;;;;;;5003257;28;20494;-60
2022/09/13 09:25:33;;;;;;;5.87;3.70;;;19.60;99.90;;;;;;5008060;28;20493;-59
2022/09/13 09:28:00;;;;;;;6.00;3.97;;;19.80;99.90;;;;;;5005523;28;20511;-60
2022/09/13 09:30:37;;;;;;;5.83;3.53;;;19.90;99.90;;;;;;5004354;28;21126;-59
2022/09/13 09:33:21;;;;;;;7.87;4.23;;;20.10;99.90;;;;;;4999500;28;20461;-59
2022/09/13 09:36:01;;;;;;;9.43;3.67;;;20.20;99.90;;;;;;5004535;28;20485;-59
2022/09/13 09:38:40;;;;;;;5.60;3.63;;;20.40;99.90;;;;;;5002642;28;20433;-62
2022/09/13 09:41:15;;;;;;;7.07;3.93;;;20.50;95.60;;;;;;5002643;28;20490;-62
2022/09/13 09:43:58;;;;;;;6.20;3.50;;;20.60;93.80;;;;;;5001042;28;20501;-61
2022/09/13 09:46:29;;;;;;;6.40;3.00;;;20.80;94.90;;;;;;5010270;28;20431;-62
2022/09/13 09:49:03;;;;;;;5.77;3.20;;;20.90;94.30;;;;;;5004741;28;20933;-61
2022/09/13 09:51:30;;;;;;;3.70;3.07;;;21.10;93.80;;;;;;5007637;28;20496;-61
2022/09/13 09:54:04;;;;;;;3.43;2.77;;;21.30;93.70;;;;;;4999967;28;20828;-62
2022/09/13 09:56:32;;;;;;;4.13;3.00;;;21.40;90.80;;;;;;5010086;28;20477;-61
2022/09/13 09:58:58;;;;;;;6.20;2.60;;;21.60;85.10;;;;;;5011006;28;20411;-61
2022/09/13 10:01:31;;;;;;;5.23;3.60;;;21.80;83.00;;;;;;5007728;28;20447;-62
2022/09/13 10:04:00;;;;;;;5.20;3.10;;;21.90;82.20;;;;;;4998061;28;20538;-61
2022/09/13 10:06:27;;;;;;;4.97;2.67;;;22.10;84.00;;;;;;5011626;28;20814;-61
2022/09/13 10:09:14;;;;;;;4.20;3.17;;;22.20;82.20;;;;;;5011567;28;20399;-61
2022/09/13 10:11:49;;;;;;;5.37;3.17;;;22.40;84.10;;;;;;4996144;28;20443;-61
2022/09/13 10:14:37;;;;;;;5.30;2.80;;;22.60;82.00;;;;;;5003923;28;20518;-61
2022/09/13 10:17:24;;;;;;;3.73;2.33;;;22.70;77.60;;;;;;4998905;28;20439;-62
2022/09/13 10:20:14;;;;;;;2.50;2.30;;;22.80;71.20;;;;;;5001726;28;20482;-61
2022/09/13 10:22:41;;;;;;;6.97;2.37;;;22.90;72.40;;;;;;5006153;28;20534;-61
2022/09/13 10:25:26;;;;;;;3.80;2.57;;;23.00;66.00;;;;;;5018819;22;20542;-58
2022/09/13 10:27:57;;;;;;;3.73;2.27;;;23.10;64.30;;;;;;4981211;28;20424;-58
2022/09/13 10:30:35;;;;;;;4.50;1.93;;;23.20;57.80;;;;;;4986499;28;20416;-58
2022/09/13 10:33:01;;;;;;;1.67;1.30;;;23.40;58.60;;;;;;4995481;28;20803;-58
2022/09/13 10:35:28;;;;;;;1.37;1.23;;;23.50;56.30;;;;;;4983595;28;20982;-60
2022/09/13 10:37:54;;;;;;;2.30;1.43;;;23.60;55.20;;;;;;4984322;28;20948;-60
2022/09/13 10:40:32;;;;;;;0.90;0.90;;;23.70;52.00;;;;;;4996970;28;20432;-59
2022/09/13 10:43:02;;;;;;;1.50;1.10;;;23.80;47.30;;;;;;4998387;28;20172;-60
2022/09/13 10:45:30;;;;;;;2.77;1.30;;;23.90;48.10;;;;;;4996904;28;20458;-62
2022/09/13 10:48:11;;;;;;;1.83;1.30;;;24.00;47.90;;;;;;4998763;28;20446;-60
2022/09/13 10:50:37;;;;;;;2.73;1.27;;;24.10;47.60;;;;;;4998344;28;20530;-59
2022/09/13 10:53:04;;;;;;;2.73;1.40;;;24.20;49.00;;;;;;4988540;28;20981;-62
2022/09/13 10:55:41;;;;;;;3.03;1.57;;;24.30;49.40;;;;;;4988538;28;20211;-60
2022/09/13 10:58:06;;;;;;;2.93;1.00;;;24.40;49.10;;;;;;4988429;28;20436;-60
2022/09/13 11:00:56;;;;;;;1.83;1.30;;;24.60;49.00;;;;;;4994331;28;20432;-60
2022/09/13 11:03:51;;;;;;;2.20;1.10;;;24.70;50.40;;;;;;4994272;28;20663;-60
2022/09/13 11:06:29;;;;;;;3.93;1.23;;;24.80;47.90;;;;;;5004175;28;20431;-60
2022/09/13 11:09:18;;;;;;;6.70;1.40;;;25.00;48.50;;;;;;4994100;28;20420;-59
2022/09/13 11:12:09;;;;;;;1.67;1.10;;;25.10;49.00;;;;;;5001045;28;20966;-57
2022/09/13 11:15:07;;;;;;;1.53;1.23;;;25.30;48.00;;;;;;4993145;28;20447;-60
2022/09/13 11:17:44;;;;;;;1.40;1.10;;;25.50;45.50;;;;;;4977939;28;20446;-60
2022/09/13 11:20:37;;;;;;;1.57;1.47;;;25.50;46.20;;;;;;5001474;28;20411;-60
2022/09/13 11:23:21;;;;;;;1.10;1.10;;;25.40;46.30;;;;;;5000843;28;20431;-59
2022/09/13 11:26:08;;;;;;;3.17;1.13;;;25.40;46.40;;;;;;4988110;28;20476;-60
2022/09/13 11:28:43;;;;;;;1.20;1.10;;;25.30;44.90;;;;;;4985911;28;20498;-60
2022/09/13 11:31:40;;;;;;;2.10;0.97;;;25.30;45.30;;;;;;5005267;28;20439;-60
2022/09/13 11:34:43;;;;;;;1.10;1.00;;;25.30;45.20;;;;;;4991681;28;20556;-59
2022/09/13 11:37:32;;;;;;;1.50;1.10;;;25.40;45.90;;;;;;4991457;28;20439;-58
2022/09/13 11:40:18;;;;;;;1.30;1.00;;;25.40;45.20;;;;;;4990442;28;20438;-59
2022/09/13 11:43:15;;;;;;;0.83;0.83;;;25.50;46.30;;;;;;4986541;28;20467;-59
2022/09/13 11:46:08;;;;;;;1.47;0.93;;;25.60;47.60;;;;;;4987771;28;20463;-59
2022/09/13 11:48:39;;;;;;;1.63;1.00;;;25.80;47.10;;;;;;4977743;28;20602;-59
2022/09/13 11:51:32;;;;;;;0.97;0.80;;;26.00;46.20;;;;;;4989655;28;20450;-60
2022/09/13 11:54:33;;;;;;;1.63;1.00;;;26.30;45.30;;;;;;4978276;28;20534;-58
2022/09/13 11:57:04;;;;;;;2.80;1.00;;;26.60;46.80;;;;;;4988463;28;20558;-58
2022/09/13 11:59:41;;;;;;;7.97;1.40;;;27.00;47.90;;;;;;4987903;28;20428;-59
2022/09/13 12:02:42;;;;;;;1.43;1.20;;;27.30;46.90;;;;;;4988438;28;20934;-58
2022/09/13 12:05:21;;;;;;;5.80;1.33;;;27.50;46.90;;;;;;4969455;28;20463;-58
2022/09/13 12:08:02;;;;;;;3.90;2.20;;;27.80;46.20;;;;;;4989348;28;20255;-59
2022/09/13 12:10:29;;;;;;;3.03;1.43;;;27.90;46.50;;;;;;4985317;28;20615;-59
2022/09/13 12:12:56;;;;;;;4.40;2.67;;;28.10;46.40;;;;;;4987389;28;20256;-59
2022/09/13 12:15:36;;;;;;;3.23;1.53;;;28.20;46.50;;;;;;4992271;28;20197;-60
2022/09/13 12:18:08;;;;;;;2.30;1.10;;;28.40;44.60;;;;;;4985046;28;20686;-59
2022/09/13 12:20:57;;;;;;;1.80;1.10;;;28.50;42.40;;;;;;4994375;28;20177;-60
2022/09/13 12:23:48;;;;;;;2.30;1.30;;;28.60;43.70;;;;;;4987613;28;20199;-60
2022/09/13 12:26:21;;;;;;;0.90;0.90;;;28.60;41.80;;;;;;5009598;28;20203;-59
2022/09/13 12:28:58;;;;;;;1.00;0.90;;;28.60;43.40;;;;;;4992730;28;20204;-59
2022/09/13 12:31:29;;;;;;;1.00;1.00;;;28.50;44.80;;;;;;4990489;28;20183;-59
2022/09/13 12:33:56;;;;;;;2.27;1.20;;;28.40;45.10;;;;;;4992258;28;20185;-58
2022/09/13 12:36:36;;;;;;;1.13;0.97;;;28.30;44.80;;;;;;4987521;28;20604;-59
2022/09/13 12:39:23;;;;;;;1.40;1.30;;;28.10;43.60;;;;;;4984092;28;20323;-59
2022/09/13 12:42:07;;;;;;;1.17;1.07;;;28.00;44.90;;;;;;4989471;28;20172;-59
2022/09/13 12:44:33;;;;;;;3.03;1.03;;;28.00;45.10;;;;;;4989349;28;20266;-59
2022/09/13 12:47:10;;;;;;;2.67;1.30;;;28.10;45.90;;;;;;4995976;28;20641;-59
2022/09/13 12:50:08;;;;;;;1.03;1.00;;;28.10;45.40;;;;;;4993374;28;20208;-59
2022/09/13 12:52:54;;;;;;;2.63;1.40;;;28.10;45.90;;;;;;4963123;28;20193;-58
2022/09/13 12:55:36;;;;;;;4.37;1.00;;;28.00;46.90;;;;;;4991811;28;20207;-58
2022/09/13 12:58:23;;;;;;;1.83;1.60;;;28.00;47.20;;;;;;4988113;28;20199;-57
2022/09/13 13:01:22;;;;;;;2.40;1.50;;;28.00;47.20;;;;;;4992309;28;20177;-57
2022/09/13 13:03:53;;;;;;;2.80;1.30;;;27.80;47.10;;;;;;4987875;28;20177;-58
2022/09/13 13:06:25;;;;;;;1.30;1.20;;;27.60;47.20;;;;;;4988451;28;20192;-54
2022/09/13 13:08:54;;;;;;;3.13;1.50;;;27.30;47.90;;;;;;4986450;28;20231;-54
2022/09/13 13:11:24;;;;;;;1.50;1.40;;;27.20;49.20;;;;;;4993830;28;20660;-56
2022/09/13 13:14:08;;;;;;;1.83;1.67;;;27.10;48.40;;;;;;4989345;28;20181;-58
2022/09/13 13:16:44;;;;;;;3.20;1.20;;;27.00;48.60;;;;;;4984485;28;20197;-57
2022/09/13 13:19:31;;;;;;;5.03;1.50;;;26.80;47.70;;;;;;4985279;28;20184;-58